Time;durP1;ratioP1;P1;durP2;ratioP2;P2;SDS_P1;SDS_P2;PMS_P1;PMS_P2;Temp;Humidity;BMP_temperature;BMP_pressure;BME280_temperature;BME280_humidity;BME280_pressure;Samples;Min_cycle;Max_cycle;Signal;HPM_P1;HPM_P2
2024/02/02 00:01:08;;;;;;;;;;;21.70;33.20;;;;;;5075085;28;19924;-52
2024/02/02 00:03:35;;;;;;;;;;;21.80;33.30;;;;;;5075113;28;19939;-48
2024/02/02 00:06:02;;;;;;;;;;;21.70;33.20;;;;;;5074812;28;19950;-48
2024/02/02 00:08:29;;;;;;;;;;;21.70;33.20;;;;;;5074969;28;19936;-49
2024/02/02 00:10:56;;;;;;;;;;;21.80;33.20;;;;;;5074957;28;20288;-51
2024/02/02 00:13:23;;;;;;;;;;;21.70;33.10;;;;;;5074308;28;19968;-49
2024/02/02 00:15:52;;;;;;;;;;;21.70;33.10;;;;;;5074076;28;19924;-46
2024/02/02 00:18:19;;;;;;;;;;;21.70;33.10;;;;;;5074330;28;20137;-47
2024/02/02 00:20:47;;;;;;;;;;;21.70;33.20;;;;;;5074243;28;20386;-48
2024/02/02 00:23:14;;;;;;;;;;;21.70;33.10;;;;;;5074328;28;19967;-49
2024/02/02 00:25:41;;;;;;;;;;;21.70;33.10;;;;;;5074442;28;20408;-50
2024/02/02 00:28:08;;;;;;;;;;;21.70;33.10;;;;;;5074380;28;19930;-50
2024/02/02 00:30:35;;;;;;;;;;;21.70;33.10;;;;;;5074327;28;19924;-51
2024/02/02 00:33:02;;;;;;;;;;;21.70;33.10;;;;;;5074256;28;19925;-49
2024/02/02 00:35:29;;;;;;;;;;;21.60;33.10;;;;;;5073772;28;20007;-52
2024/02/02 00:37:56;;;;;;;;;;;21.60;33.10;;;;;;5073625;28;19925;-51
2024/02/02 00:40:23;;;;;;;;;;;21.60;33.10;;;;;;5073050;28;19928;-52
2024/02/02 00:42:50;;;;;;;;;;;21.60;33.10;;;;;;5073706;28;20003;-46
2024/02/02 00:45:17;;;;;;;;;;;21.60;33.10;;;;;;5073864;28;19928;-46
2024/02/02 00:47:44;;;;;;;;;;;21.70;33.10;;;;;;5073438;28;20412;-50
2024/02/02 00:50:12;;;;;;;;;;;21.60;33.10;;;;;;5073640;28;20432;-51
2024/02/02 00:52:39;;;;;;;;;;;21.60;33.10;;;;;;5073379;28;19934;-52
2024/02/02 00:55:07;;;;;;;;;;;21.60;33.10;;;;;;5072829;28;19982;-52
2024/02/02 00:57:34;;;;;;;;;;;21.60;33.10;;;;;;5072984;28;19955;-51
2024/02/02 01:00:01;;;;;;;;;;;21.60;33.10;;;;;;5073776;28;19963;-46
2024/02/02 01:02:28;;;;;;;;;;;21.60;33.10;;;;;;5073032;28;19952;-52
2024/02/02 01:04:55;;;;;;;;;;;21.60;33.10;;;;;;5073485;28;19939;-47
2024/02/02 01:07:23;;;;;;;;;;;21.60;33.10;;;;;;5072994;28;19925;-46
2024/02/02 01:09:50;;;;;;;;;;;21.60;33.10;;;;;;5055951;28;19931;-52
2024/02/02 01:12:17;;;;;;;;;;;21.60;33.10;;;;;;5073371;28;19926;-47
2024/02/02 01:14:44;;;;;;;;;;;21.60;33.10;;;;;;5073636;28;19936;-52
2024/02/02 01:17:11;;;;;;;;;;;21.60;33.10;;;;;;5073071;28;20405;-49
2024/02/02 01:19:37;;;;;;;;;;;21.60;33.00;;;;;;5073267;28;20336;-52
2024/02/02 01:22:05;;;;;;;;;;;21.60;33.00;;;;;;5072971;28;20404;-46
2024/02/02 01:24:32;;;;;;;;;;;21.60;33.00;;;;;;5072868;28;20019;-52
2024/02/02 01:26:59;;;;;;;;;;;21.60;33.00;;;;;;5073392;28;20007;-47
2024/02/02 01:29:27;;;;;;;;;;;21.60;33.60;;;;;;5073500;28;19924;-52
2024/02/02 01:31:53;;;;;;;;;;;21.60;33.00;;;;;;5055707;28;19978;-47
2024/02/02 01:34:22;;;;;;;;;;;21.60;33.00;;;;;;5073030;28;20003;-52
2024/02/02 01:36:49;;;;;;;;;;;21.60;33.00;;;;;;5072620;28;19928;-54
2024/02/02 01:39:16;;;;;;;;;;;21.60;33.00;;;;;;5055122;28;20444;-54
2024/02/02 01:41:45;;;;;;;;;;;21.60;33.00;;;;;;5073141;28;19928;-50
2024/02/02 01:44:12;;;;;;;;;;;21.60;33.00;;;;;;5073211;28;19950;-49
2024/02/02 01:46:39;;;;;;;;;;;21.60;33.00;;;;;;5072895;28;19935;-48
2024/02/02 01:49:05;;;;;;;;;;;21.60;33.10;;;;;;5073037;28;19932;-50
2024/02/02 01:51:35;;;;;;;;;;;21.60;33.00;;;;;;5072970;28;19931;-49
2024/02/02 01:54:03;;;;;;;;;;;21.60;33.00;;;;;;5072544;28;19925;-49
2024/02/02 01:56:30;;;;;;;;;;;21.50;33.00;;;;;;5072783;28;19929;-50
2024/02/02 01:58:57;;;;;;;;;;;21.50;33.00;;;;;;5072661;28;19932;-48
2024/02/02 02:01:24;;;;;;;;;;;21.50;33.00;;;;;;5072809;28;20431;-50
2024/02/02 02:03:51;;;;;;;;;;;21.50;33.00;;;;;;5073329;28;19924;-49
2024/02/02 02:06:18;;;;;;;;;;;21.50;33.00;;;;;;5072265;28;19979;-51
2024/02/02 02:08:45;;;;;;;;;;;21.50;33.00;;;;;;5072571;28;19971;-49
2024/02/02 02:11:13;;;;;;;;;;;21.50;33.00;;;;;;5072478;28;19940;-46
2024/02/02 02:13:39;;;;;;;;;;;21.50;33.00;;;;;;5073228;28;19925;-49
2024/02/02 02:16:07;;;;;;;;;;;21.50;33.00;;;;;;5072103;28;19929;-50
2024/02/02 02:18:34;;;;;;;;;;;21.60;33.00;;;;;;5072729;28;19967;-46
2024/02/02 02:21:23;;;;;;;;;;;21.50;33.00;;;;;;5072573;28;20259;-51
2024/02/02 02:23:51;;;;;;;;;;;21.60;33.00;;;;;;5072838;28;20027;-52
2024/02/02 02:26:18;;;;;;;;;;;21.60;33.00;;;;;;5072199;28;19928;-53
2024/02/02 02:28:46;;;;;;;;;;;21.60;32.90;;;;;;5072571;28;20019;-52
2024/02/02 02:31:14;;;;;;;;;;;21.60;32.90;;;;;;5072829;28;20007;-48
2024/02/02 02:33:41;;;;;;;;;;;21.60;32.90;;;;;;5072880;28;19964;-50
2024/02/02 02:36:09;;;;;;;;;;;21.60;33.00;;;;;;5072283;28;19924;-49
2024/02/02 02:38:36;;;;;;;;;;;21.60;33.00;;;;;;5072233;28;19974;-49
2024/02/02 02:41:03;;;;;;;;;;;21.50;33.40;;;;;;5072273;28;19929;-48
2024/02/02 02:43:30;;;;;;;;;;;21.50;32.90;;;;;;5072288;28;19929;-51
2024/02/02 02:45:57;;;;;;;;;;;21.50;32.90;;;;;;5072754;28;19924;-52
2024/02/02 02:48:24;;;;;;;;;;;21.50;32.90;;;;;;5072317;28;20312;-51
2024/02/02 02:50:51;;;;;;;;;;;21.50;32.90;;;;;;5072423;28;19924;-48
2024/02/02 02:53:18;;;;;;;;;;;21.50;32.90;;;;;;5072396;28;20262;-51
2024/02/02 02:55:45;;;;;;;;;;;21.50;32.90;;;;;;5072427;28;20338;-52
2024/02/02 02:58:12;;;;;;;;;;;21.50;32.90;;;;;;5072015;28;20007;-53
2024/02/02 03:00:39;;;;;;;;;;;21.50;32.90;;;;;;5072273;28;20294;-50
2024/02/02 03:03:06;;;;;;;;;;;21.50;32.90;;;;;;5071851;28;19932;-52
2024/02/02 03:05:33;;;;;;;;;;;21.50;32.90;;;;;;5073025;28;19932;-52
2024/02/02 03:08:00;;;;;;;;;;;21.50;32.90;;;;;;5075904;28;19936;-55
2024/02/02 03:10:28;;;;;;;;;;;21.50;33.00;;;;;;5075964;28;19994;-49
2024/02/02 03:12:55;;;;;;;;;;;21.40;32.90;;;;;;5075553;28;19936;-51
2024/02/02 03:15:22;;;;;;;;;;;21.50;32.90;;;;;;5075783;28;20357;-54
2024/02/02 03:17:49;;;;;;;;;;;21.50;32.90;;;;;;5075269;28;20297;-53
2024/02/02 03:20:16;;;;;;;;;;;21.50;32.90;;;;;;5075706;28;19959;-54
2024/02/02 03:22:43;;;;;;;;;;;21.50;32.90;;;;;;5057848;28;19924;-52
2024/02/02 03:25:11;;;;;;;;;;;21.50;32.90;;;;;;5075545;28;19931;-53
2024/02/02 03:27:39;;;;;;;;;;;21.50;32.90;;;;;;5058116;28;20389;-51
2024/02/02 03:30:07;;;;;;;;;;;21.50;32.90;;;;;;5075551;28;19936;-53
2024/02/02 03:32:34;;;;;;;;;;;21.50;32.80;;;;;;5075562;28;19959;-53
2024/02/02 03:35:01;;;;;;;;;;;21.50;32.80;;;;;;5075146;28;19924;-54
2024/02/02 03:37:28;;;;;;;;;;;21.50;32.80;;;;;;5074563;28;19928;-53
2024/02/02 03:39:55;;;;;;;;;;;21.50;32.80;;;;;;5075311;28;19956;-53
2024/02/02 03:42:22;;;;;;;;;;;21.50;32.70;;;;;;5075110;28;19950;-58
2024/02/02 03:44:49;;;;;;;;;;;21.50;32.70;;;;;;5075378;28;19975;-53
2024/02/02 03:47:16;;;;;;;;;;;21.50;32.80;;;;;;5074955;28;19929;-58
2024/02/02 03:49:43;;;;;;;;;;;21.40;32.70;;;;;;5074768;28;19924;-56
2024/02/02 03:52:10;;;;;;;;;;;21.40;32.80;;;;;;5075070;28;19947;-52
2024/02/02 03:54:37;;;;;;;;;;;21.40;32.80;;;;;;5074890;28;20394;-58
2024/02/02 03:57:04;;;;;;;;;;;21.40;32.80;;;;;;5074616;28;20385;-59
2024/02/02 03:59:31;;;;;;;;;;;21.40;32.80;;;;;;5074916;28;20372;-60
2024/02/02 04:01:58;;;;;;;;;;;21.40;32.80;;;;;;5075146;28;19967;-54
2024/02/02 04:04:25;;;;;;;;;;;21.40;33.40;;;;;;5074884;28;19928;-57
2024/02/02 04:06:52;;;;;;;;;;;21.40;32.80;;;;;;5074797;28;20049;-48
2024/02/02 04:09:19;;;;;;;;;;;21.40;32.80;;;;;;5074467;28;19924;-47
2024/02/02 04:11:46;;;;;;;;;;;21.40;32.80;;;;;;5074789;28;19929;-46
2024/02/02 04:14:13;;;;;;;;;;;21.40;32.80;;;;;;5074590;28;20023;-46
2024/02/02 04:16:40;;;;;;;;;;;21.40;32.80;;;;;;5073980;28;20002;-47
2024/02/02 04:19:08;;;;;;;;;;;21.40;32.80;;;;;;5073576;28;20381;-50
2024/02/02 04:21:35;;;;;;;;;;;21.40;32.80;;;;;;5074313;28;20065;-49
2024/02/02 04:24:02;;;;;;;;;;;21.40;32.80;;;;;;5074389;28;19931;-47
2024/02/02 04:26:29;;;;;;;;;;;21.40;32.80;;;;;;5074187;28;20031;-48
2024/02/02 04:28:56;;;;;;;;;;;21.40;32.80;;;;;;5067782;28;19928;-47
2024/02/02 04:31:23;;;;;;;;;;;21.40;32.80;;;;;;5056057;28;19979;-47
2024/02/02 04:33:50;;;;;;;;;;;21.40;32.80;;;;;;5073343;28;20094;-47
2024/02/02 04:36:17;;;;;;;;;;;21.40;32.80;;;;;;5073845;28;19925;-46
2024/02/02 04:38:44;;;;;;;;;;;21.40;32.70;;;;;;5074050;28;19978;-48
2024/02/02 04:41:11;;;;;;;;;;;21.40;32.40;;;;;;5055892;28;19970;-48
2024/02/02 04:43:38;;;;;;;;;;;21.40;32.30;;;;;;5072283;28;19931;-48
2024/02/02 04:46:05;;;;;;;;;;;21.40;32.20;;;;;;5072748;28;19924;-46
2024/02/02 04:48:32;;;;;;;;;;;21.40;32.10;;;;;;5073331;28;19931;-47
2024/02/02 04:50:59;;;;;;;;;;;21.40;32.00;;;;;;5073389;28;20016;-46
2024/02/02 04:53:26;;;;;;;;;;;21.40;32.00;;;;;;5073960;28;19928;-49
2024/02/02 04:55:53;;;;;;;;;;;21.40;32.00;;;;;;5073353;28;19925;-53
2024/02/02 04:58:22;;;;;;;;;;;21.40;32.00;;;;;;5072672;28;19924;-53
2024/02/02 05:00:48;;;;;;;;;;;21.40;32.00;;;;;;5073057;28;19925;-54
2024/02/02 05:03:15;;;;;;;;;;;21.40;32.00;;;;;;5073918;28;19925;-47
2024/02/02 05:05:42;;;;;;;;;;;21.40;32.00;;;;;;5056308;28;19924;-45
2024/02/02 05:08:09;;;;;;;;;;;21.30;32.00;;;;;;5073579;28;19985;-48
2024/02/02 05:10:36;;;;;;;;;;;21.30;32.00;;;;;;5073583;28;19935;-47
2024/02/02 05:13:03;;;;;;;;;;;21.30;32.00;;;;;;5073279;28;19925;-48
2024/02/02 05:15:30;;;;;;;;;;;21.30;32.00;;;;;;5073506;28;19932;-48
2024/02/02 05:17:57;;;;;;;;;;;21.30;32.00;;;;;;5073297;28;19970;-48
2024/02/02 05:20:25;;;;;;;;;;;21.30;32.00;;;;;;5072835;28;19928;-46
2024/02/02 05:22:52;;;;;;;;;;;21.40;32.00;;;;;;5073124;28;19924;-46
2024/02/02 05:25:19;;;;;;;;;;;21.30;31.90;;;;;;5073241;28;19924;-48
2024/02/02 05:27:46;;;;;;;;;;;21.40;31.90;;;;;;5073396;28;19935;-46
2024/02/02 05:30:13;;;;;;;;;;;21.40;31.90;;;;;;5072307;28;19990;-49
2024/02/02 05:32:40;;;;;;;;;;;21.40;31.90;;;;;;5072828;28;20340;-50
2024/02/02 05:35:08;;;;;;;;;;;21.40;31.80;;;;;;5072807;28;20242;-46
2024/02/02 05:37:35;;;;;;;;;;;21.50;31.90;;;;;;5069922;28;19924;-49
2024/02/02 05:40:03;;;;;;;;;;;21.50;31.80;;;;;;5065331;28;20447;-51
2024/02/02 05:42:30;;;;;;;;;;;21.50;31.80;;;;;;5071766;28;20284;-46
2024/02/02 05:44:57;;;;;;;;;;;21.50;31.60;;;;;;5062085;28;20024;-48
2024/02/02 05:47:24;;;;;;;;;;;21.50;31.60;;;;;;5063365;28;19931;-50
2024/02/02 05:49:51;;;;;;;;;;;21.50;31.70;;;;;;5072876;28;19928;-49
2024/02/02 05:52:18;;;;;;;;;;;21.50;31.70;;;;;;5071747;28;19930;-48
2024/02/02 05:54:45;;;;;;;;;;;21.50;31.70;;;;;;5072699;28;19924;-49
2024/02/02 05:57:12;;;;;;;;;;;21.50;31.70;;;;;;5072391;28;20332;-47
2024/02/02 05:59:39;;;;;;;;;;;21.60;31.70;;;;;;5072690;28;19928;-46
2024/02/02 06:02:05;;;;;;;;;;;21.50;31.60;;;;;;5072754;28;19928;-46
2024/02/02 06:04:32;;;;;;;;;;;21.60;31.70;;;;;;5071079;28;19928;-47
2024/02/02 06:06:59;;;;;;;;;;;21.60;31.70;;;;;;5071082;28;19931;-46
2024/02/02 06:09:27;;;;;;;;;;;21.60;31.70;;;;;;5072347;28;19929;-47
2024/02/02 06:11:54;;;;;;;;;;;21.70;31.70;;;;;;5071696;28;20396;-50
2024/02/02 06:14:25;;;;;;;;;;;21.70;31.70;;;;;;5066231;28;20024;-48
2024/02/02 06:16:55;;;;;;;;;;;21.70;31.70;;;;;;5067786;28;19924;-51
2024/02/02 06:19:22;;;;;;;;;;;21.70;31.70;;;;;;5065522;28;20365;-53
2024/02/02 06:21:50;;;;;;;;;;;21.80;31.60;;;;;;5062888;28;20019;-49
2024/02/02 06:24:16;;;;;;;;;;;21.80;31.70;;;;;;5065625;28;19978;-51
2024/02/02 06:26:43;;;;;;;;;;;21.80;31.80;;;;;;5060861;28;19932;-47
2024/02/02 06:29:10;;;;;;;;;;;21.80;31.90;;;;;;5059141;28;20882;-52
2024/02/02 06:31:38;;;;;;;;;;;21.80;32.30;;;;;;5048132;28;20637;-53
2024/02/02 06:34:05;;;;;;;;;;;21.90;32.60;;;;;;5066440;28;19925;-48
2024/02/02 06:36:34;;;;;;;;;;;21.90;33.00;;;;;;5065302;28;19928;-55
2024/02/02 06:39:01;;;;;;;;;;;21.90;33.30;;;;;;5061417;28;19946;-55
2024/02/02 06:41:29;;;;;;;;;;;22.00;33.70;;;;;;5054255;28;20431;-54
2024/02/02 06:43:56;;;;;;;;;;;22.10;33.70;;;;;;5056508;28;20049;-48
2024/02/02 06:46:23;;;;;;;;;;;22.10;34.00;;;;;;5063793;28;19925;-53
2024/02/02 06:48:51;;;;;;;;;;;22.20;34.00;;;;;;5064245;28;19955;-48
2024/02/02 06:51:18;;;;;;;;;;;22.20;34.00;;;;;;5068060;28;20003;-51
2024/02/02 06:53:45;;;;;;;;;;;22.30;33.50;;;;;;5048639;28;19939;-49
2024/02/02 06:56:32;;;;;;;;;;;22.20;33.00;;;;;;5070216;28;19931;-49
2024/02/02 06:58:59;;;;;;;;;;;22.20;32.80;;;;;;5067245;28;20404;-48
2024/02/02 07:01:27;;;;;;;;;;;22.20;32.60;;;;;;5043941;28;19932;-50
2024/02/02 07:03:54;;;;;;;;;;;22.20;32.40;;;;;;5061789;28;19986;-48
2024/02/02 07:06:21;;;;;;;;;;;22.20;32.30;;;;;;5046471;28;19933;-48
2024/02/02 07:08:49;;;;;;;;;;;22.30;32.30;;;;;;5063867;28;19935;-50
2024/02/02 07:11:32;;;;;;;;;;;22.30;32.20;;;;;;5061411;28;20364;-51
2024/02/02 07:14:06;;;;;;;;;;;22.30;32.20;;;;;;5063727;28;19925;-48
2024/02/02 07:16:33;;;;;;;;;;;22.30;32.20;;;;;;5064930;28;19944;-45
2024/02/02 07:19:00;;;;;;;;;;;22.30;32.40;;;;;;5063683;28;19933;-44
2024/02/02 07:21:33;;;;;;;;;;;22.40;32.60;;;;;;5061014;28;19961;-50
2024/02/02 07:24:02;;;;;;;;;;;22.50;32.70;;;;;;5063625;28;19932;-49
2024/02/02 07:26:36;;;;;;;;;;;22.50;32.60;;;;;;5065286;28;19968;-51
2024/02/02 07:29:06;;;;;;;;;;;22.50;32.60;;;;;;5048619;28;19970;-47
2024/02/02 07:31:36;;;;;;;;;;;22.50;32.60;;;;;;5066068;28;20416;-47
2024/02/02 07:34:20;;;;;;;;;;;22.60;32.50;;;;;;5045015;28;20382;-47
2024/02/02 07:36:47;;;;;;;;;;;22.60;32.40;;;;;;5043464;28;20070;-49
2024/02/02 07:39:23;;;;;;;;;;;22.60;32.50;;;;;;5063726;28;20431;-51
2024/02/02 07:41:50;;;;;;;;;;;22.60;32.60;;;;;;5065486;28;19943;-48
2024/02/02 07:44:17;;;;;;;;;;;22.70;32.80;;;;;;5028057;28;19939;-52
2024/02/02 07:46:44;;;;;;;;;;;22.80;33.30;;;;;;5062772;28;19929;-54
2024/02/02 07:49:11;;;;;;;;;;;22.80;33.30;;;;;;5066596;28;19986;-49
2024/02/02 07:51:43;;;;;;;;;;;22.80;33.30;;;;;;5047596;28;19929;-48
2024/02/02 07:54:10;;;;;;;;;;;23.00;33.30;;;;;;5067091;28;19955;-53
2024/02/02 07:56:37;;;;;;;;;;;23.00;33.10;;;;;;5061916;28;20566;-51
2024/02/02 07:59:04;;;;;;;;;;;23.10;33.00;;;;;;5048123;28;19959;-51
2024/02/02 08:01:33;;;;;;;;;;;23.10;32.90;;;;;;5058251;28;19928;-52
2024/02/02 08:04:02;;;;;;;;;;;23.10;32.70;;;;;;5062031;28;20211;-49
2024/02/02 08:06:30;;;;;;;;;;;23.10;32.60;;;;;;5028430;28;19939;-50
2024/02/02 08:08:57;;;;;;;;;;;23.20;32.50;;;;;;5067382;28;19924;-50
2024/02/02 08:11:26;;;;;;;;;;;23.20;32.40;;;;;;5045131;28;19932;-50
2024/02/02 08:13:54;;;;;;;;;;;23.20;32.30;;;;;;5062574;28;20404;-48
2024/02/02 08:16:20;;;;;;;;;;;23.30;32.60;;;;;;5063599;28;20258;-50
2024/02/02 08:18:48;;;;;;;;;;;23.30;32.70;;;;;;5065673;28;20297;-49
2024/02/02 08:21:15;;;;;;;;;;;23.30;32.70;;;;;;5054658;28;19924;-52
2024/02/02 08:23:42;;;;;;;;;;;23.40;32.80;;;;;;5062896;28;19925;-53
2024/02/02 08:26:09;;;;;;;;;;;23.40;33.00;;;;;;5063638;28;19936;-55
2024/02/02 08:28:39;;;;;;;;;;;23.40;33.00;;;;;;5068101;28;20420;-54
2024/02/02 08:31:17;;;;;;;;;;;23.50;33.00;;;;;;5055168;28;20071;-51
2024/02/02 08:33:44;;;;;;;;;;;23.50;32.90;;;;;;5061732;28;20018;-48
2024/02/02 08:36:11;;;;;;;;;;;23.50;32.70;;;;;;5060068;28;19972;-50
2024/02/02 08:38:40;;;;;;;;;;;23.60;32.80;;;;;;5067253;28;19924;-53
2024/02/02 08:41:07;;;;;;;;;;;23.60;32.90;;;;;;5064320;28;19986;-50
2024/02/02 08:43:35;;;;;;;;;;;23.60;32.90;;;;;;5060942;28;19932;-52
2024/02/02 08:46:06;;;;;;;;;;;23.60;33.00;;;;;;5062691;28;20025;-51
2024/02/02 08:48:45;;;;;;;;;;;23.60;32.80;;;;;;5043525;28;20024;-52
2024/02/02 08:51:33;;;;;;;;;;;23.60;32.60;;;;;;5060940;28;19932;-54
2024/02/02 08:54:20;;;;;;;;;;;23.60;32.60;;;;;;5062296;28;19977;-51
2024/02/02 08:56:59;;;;;;;;;;;23.70;32.40;;;;;;5047959;28;19924;-50
2024/02/02 08:59:31;;;;;;;;;;;23.70;32.30;;;;;;5061074;28;19924;-51
2024/02/02 09:01:58;;;;;;;;;;;23.70;32.20;;;;;;5058902;28;19937;-50
2024/02/02 09:04:45;;;;;;;;;;;23.70;32.10;;;;;;5060652;28;19947;-50
2024/02/02 09:07:13;;;;;;;;;;;23.70;32.00;;;;;;5058108;28;20393;-51
2024/02/02 09:09:41;;;;;;;;;;;23.70;31.90;;;;;;5060443;28;20022;-51
2024/02/02 09:12:08;;;;;;;;;;;23.70;32.00;;;;;;5061763;28;19939;-53
2024/02/02 09:14:35;;;;;;;;;;;23.80;32.00;;;;;;5067427;28;19993;-52
2024/02/02 09:17:02;;;;;;;;;;;23.80;32.00;;;;;;5061868;28;19933;-49
2024/02/02 09:19:34;;;;;;;;;;;23.80;32.00;;;;;;5065403;28;19928;-47
2024/02/02 09:22:04;;;;;;;;;;;23.80;32.00;;;;;;5062831;28;19925;-51
2024/02/02 09:24:37;;;;;;;;;;;23.80;32.00;;;;;;5051212;28;19929;-48
2024/02/02 09:27:06;;;;;;;;;;;23.90;32.10;;;;;;5059657;28;20279;-47
2024/02/02 09:29:34;;;;;;;;;;;23.90;32.30;;;;;;5063232;28;19924;-48
2024/02/02 09:32:01;;;;;;;;;;;23.90;32.30;;;;;;5065680;28;19936;-46
2024/02/02 09:34:29;;;;;;;;;;;23.90;32.40;;;;;;5060348;28;19928;-46
2024/02/02 09:36:56;;;;;;;;;;;23.90;32.40;;;;;;5062319;28;20504;-49
2024/02/02 09:39:38;;;;;;;;;;;23.90;32.40;;;;;;5066911;28;19939;-50
2024/02/02 09:42:25;;;;;;;;;;;23.90;32.40;;;;;;5060543;28;19932;-48
2024/02/02 09:44:56;;;;;;;;;;;23.90;32.40;;;;;;5059774;28;19924;-50
2024/02/02 09:47:31;;;;;;;;;;;24.00;32.50;;;;;;5063631;28;20445;-52
2024/02/02 09:50:06;;;;;;;;;;;24.00;32.30;;;;;;5042916;28;19955;-51
2024/02/02 09:52:53;;;;;;;;;;;24.10;32.40;;;;;;5062303;28;19935;-50
2024/02/02 09:55:32;;;;;;;;;;;24.10;32.30;;;;;;5060337;28;19936;-50
2024/02/02 09:58:07;;;;;;;;;;;24.20;32.30;;;;;;5063108;28;20298;-52
2024/02/02 10:00:44;;;;;;;;;;;24.20;32.30;;;;;;5063189;28;19925;-51
2024/02/02 10:03:31;;;;;;;;;;;24.20;32.20;;;;;;5062863;28;19928;-48
2024/02/02 10:06:06;;;;;;;;;;;24.20;32.20;;;;;;5051326;28;19987;-51
2024/02/02 10:08:52;;;;;;;;;;;24.30;32.20;;;;;;5062048;28;20010;-49
2024/02/02 10:11:39;;;;;;;;;;;24.30;32.10;;;;;;5061757;28;20385;-50
2024/02/02 10:14:26;;;;;;;;;;;24.30;32.10;;;;;;5062821;28;19967;-49
2024/02/02 10:17:06;;;;;;;;;;;24.30;32.10;;;;;;5049873;28;20370;-50
2024/02/02 10:19:53;;;;;;;;;;;24.30;31.90;;;;;;5070419;28;20401;-47
2024/02/02 10:22:29;;;;;;;;;;;24.30;31.60;;;;;;5055044;28;19937;-53
2024/02/02 10:25:16;;;;;;;;;;;24.30;31.40;;;;;;5066866;28;20549;-53
2024/02/02 10:28:02;;;;;;;;;;;24.30;31.40;;;;;;5068075;28;20019;-53
2024/02/02 10:30:49;;;;;;;;;;;24.30;31.30;;;;;;5069987;28;19928;-53
2024/02/02 10:33:24;;;;;;;;;;;24.30;31.20;;;;;;5070445;28;19975;-52
2024/02/02 10:36:05;;;;;;;;;;;24.30;31.10;;;;;;5065566;28;19925;-49
2024/02/02 10:38:46;;;;;;;;;;;24.30;31.00;;;;;;5065375;28;19943;-49
2024/02/02 10:41:22;;;;;;;;;;;24.30;30.90;;;;;;5062385;28;19932;-51
2024/02/02 10:44:03;;;;;;;;;;;24.30;30.80;;;;;;5070334;28;20385;-51
2024/02/02 10:46:50;;;;;;;;;;;24.30;30.70;;;;;;5062967;28;20390;-50
2024/02/02 10:49:33;;;;;;;;;;;24.30;30.60;;;;;;5069733;28;19947;-50
2024/02/02 10:52:20;;;;;;;;;;;24.40;30.50;;;;;;5071885;28;19924;-46
2024/02/02 10:54:52;;;;;;;;;;;24.40;30.30;;;;;;5069586;28;20357;-49
2024/02/02 10:57:26;;;;;;;;;;;24.40;30.30;;;;;;5065950;28;20064;-54
2024/02/02 11:00:01;;;;;;;;;;;24.30;30.30;;;;;;5051514;28;20017;-51
2024/02/02 11:02:36;;;;;;;;;;;24.40;30.40;;;;;;5071358;28;20409;-52
2024/02/02 11:05:21;;;;;;;;;;;24.40;30.30;;;;;;5065966;28;19930;-49
2024/02/02 11:07:52;;;;;;;;;;;24.40;30.30;;;;;;5069746;28;20028;-49
2024/02/02 11:10:24;;;;;;;;;;;24.40;30.30;;;;;;5066820;28;20565;-52
2024/02/02 11:13:03;;;;;;;;;;;24.40;30.40;;;;;;5070725;28;19936;-49
2024/02/02 11:15:47;;;;;;;;;;;24.40;30.70;;;;;;5068703;28;19986;-51
2024/02/02 11:18:25;;;;;;;;;;;24.40;30.70;;;;;;5065708;28;19931;-51
2024/02/02 11:21:12;;;;;;;;;;;24.50;30.80;;;;;;5070571;28;19972;-48
2024/02/02 11:23:43;;;;;;;;;;;24.40;30.50;;;;;;5049847;28;19933;-52
2024/02/02 11:26:14;;;;;;;;;;;24.40;29.90;;;;;;5067005;28;20411;-49
2024/02/02 11:29:01;;;;;;;;;;;24.40;29.50;;;;;;5062140;28;19928;-52
2024/02/02 11:31:48;;;;;;;;;;;24.40;29.70;;;;;;5056085;28;20468;-50
2024/02/02 11:34:24;;;;;;;;;;;24.40;29.70;;;;;;5061332;28;19932;-51
2024/02/02 11:37:00;;;;;;;;;;;24.40;29.60;;;;;;5062522;28;20373;-51
2024/02/02 11:39:38;;;;;;;;;;;24.40;29.40;;;;;;5062910;28;19976;-53
2024/02/02 11:42:08;;;;;;;;;;;24.40;29.30;;;;;;5063603;28;20469;-53
2024/02/02 11:44:36;;;;;;;;;;;24.40;29.20;;;;;;5068046;28;19970;-50
2024/02/02 11:47:05;;;;;;;;;;;24.40;29.30;;;;;;5064089;28;19932;-48
2024/02/02 11:49:34;;;;;;;;;;;24.40;28.80;;;;;;5060936;28;19977;-49
2024/02/02 11:52:04;;;;;;;;;;;24.40;28.80;;;;;;5060712;28;19960;-52
2024/02/02 11:54:51;;;;;;;;;;;24.40;29.00;;;;;;5062316;28;19928;-48
2024/02/02 11:57:21;;;;;;;;;;;24.40;29.00;;;;;;5047844;28;19963;-52
2024/02/02 11:59:51;;;;;;;;;;;24.40;28.70;;;;;;5064719;28;19956;-48
2024/02/02 12:02:31;;;;;;;;;;;24.40;28.80;;;;;;5062467;28;19924;-53
2024/02/02 12:05:01;;;;;;;;;;;24.40;29.00;;;;;;5055052;28;19984;-50
2024/02/02 12:07:49;;;;;;;;;;;24.40;29.20;;;;;;5057570;28;20015;-56
2024/02/02 12:10:18;;;;;;;;;;;24.50;29.50;;;;;;5052767;28;20006;-53
2024/02/02 12:12:48;;;;;;;;;;;24.50;29.50;;;;;;5061374;28;20022;-57
2024/02/02 12:15:15;;;;;;;;;;;24.50;29.40;;;;;;5063490;28;20019;-53
2024/02/02 12:17:43;;;;;;;;;;;24.50;29.40;;;;;;5047315;28;19935;-63
2024/02/02 12:20:11;;;;;;;;;;;24.50;29.40;;;;;;5060614;28;19970;-55
2024/02/02 12:22:39;;;;;;;;;;;24.60;29.50;;;;;;5059766;28;19967;-52
2024/02/02 12:25:09;;;;;;;;;;;24.60;29.50;;;;;;5065535;28;20019;-54
2024/02/02 12:27:36;;;;;;;;;;;24.60;29.60;;;;;;5062104;28;19925;-58
2024/02/02 12:30:07;;;;;;;;;;;24.60;29.60;;;;;;5065213;28;20013;-52
2024/02/02 12:32:35;;;;;;;;;;;24.70;29.70;;;;;;5066134;28;19977;-46
2024/02/02 12:35:04;;;;;;;;;;;24.60;29.70;;;;;;5067205;28;20062;-52
2024/02/02 12:37:51;;;;;;;;;;;24.70;29.70;;;;;;5069828;28;19931;-54
2024/02/02 12:40:25;;;;;;;;;;;24.70;29.60;;;;;;5062781;28;20015;-48
2024/02/02 12:42:54;;;;;;;;;;;24.70;29.70;;;;;;5061976;28;19929;-54
2024/02/02 12:45:23;;;;;;;;;;;24.70;29.70;;;;;;5064858;28;19928;-50
2024/02/02 12:47:50;;;;;;;;;;;24.80;29.80;;;;;;5069434;28;19986;-47
2024/02/02 12:50:18;;;;;;;;;;;24.80;29.80;;;;;;5066834;28;19924;-48
2024/02/02 12:52:46;;;;;;;;;;;24.80;29.90;;;;;;5069099;28;19932;-54
2024/02/02 12:55:13;;;;;;;;;;;24.90;30.00;;;;;;5061953;28;20438;-53
2024/02/02 12:57:41;;;;;;;;;;;24.90;30.00;;;;;;5066535;28;20395;-52
2024/02/02 13:00:15;;;;;;;;;;;24.90;30.00;;;;;;5060332;28;19939;-48
2024/02/02 13:02:45;;;;;;;;;;;24.90;30.00;;;;;;5059922;28;19935;-52
2024/02/02 13:05:16;;;;;;;;;;;24.90;30.00;;;;;;5061000;28;19932;-49
2024/02/02 13:07:49;;;;;;;;;;;24.90;29.80;;;;;;5065618;28;19932;-52
2024/02/02 13:10:36;;;;;;;;;;;25.00;29.70;;;;;;5063315;28;20058;-52
2024/02/02 13:13:10;;;;;;;;;;;24.90;29.60;;;;;;5069113;28;19924;-49
2024/02/02 13:15:38;;;;;;;;;;;24.90;29.60;;;;;;5063417;28;19924;-48
2024/02/02 13:18:10;;;;;;;;;;;24.90;29.50;;;;;;5064081;28;21604;-52
2024/02/02 13:20:37;;;;;;;;;;;24.90;29.40;;;;;;5069984;28;20416;-49
2024/02/02 13:23:13;;;;;;;;;;;24.90;29.40;;;;;;5070009;28;19970;-47
2024/02/02 13:25:40;;;;;;;;;;;24.90;29.50;;;;;;5071134;28;19932;-46
2024/02/02 13:28:15;;;;;;;;;;;24.80;29.50;;;;;;5072174;28;20027;-47
2024/02/02 13:30:57;;;;;;;;;;;24.80;29.50;;;;;;5054291;28;20006;-49
2024/02/02 13:33:31;;;;;;;;;;;24.70;29.50;;;;;;5069292;28;20007;-49
2024/02/02 13:35:59;;;;;;;;;;;24.80;29.60;;;;;;5071927;28;20362;-48
2024/02/02 13:38:30;;;;;;;;;;;24.70;29.70;;;;;;5067386;28;19932;-47
2024/02/02 13:40:59;;;;;;;;;;;24.70;29.80;;;;;;5072313;28;19924;-46
2024/02/02 13:43:27;;;;;;;;;;;24.70;29.70;;;;;;5063015;28;20290;-52
2024/02/02 13:46:05;;;;;;;;;;;24.70;29.80;;;;;;5068784;28;19932;-49
2024/02/02 13:48:43;;;;;;;;;;;24.70;29.90;;;;;;5054543;28;19960;-51
2024/02/02 13:51:11;;;;;;;;;;;24.70;30.00;;;;;;5058073;28;20011;-53
2024/02/02 13:53:38;;;;;;;;;;;24.60;29.90;;;;;;5072090;28;19925;-53
2024/02/02 13:56:06;;;;;;;;;;;24.70;30.00;;;;;;5070560;28;19954;-53
2024/02/02 13:58:37;;;;;;;;;;;24.60;30.00;;;;;;5068173;28;19933;-52
2024/02/02 14:01:20;;;;;;;;;;;24.60;30.00;;;;;;5071218;28;20385;-47
2024/02/02 14:03:53;;;;;;;;;;;24.60;30.00;;;;;;5069950;28;19925;-50
2024/02/02 14:06:20;;;;;;;;;;;24.60;30.10;;;;;;5068313;28;19934;-49
2024/02/02 14:08:50;;;;;;;;;;;24.50;30.10;;;;;;5071173;28;19940;-50
2024/02/02 14:11:21;;;;;;;;;;;24.50;30.10;;;;;;5067921;28;20011;-49
2024/02/02 14:13:48;;;;;;;;;;;24.50;30.20;;;;;;5068480;28;19924;-46
2024/02/02 14:16:16;;;;;;;;;;;24.50;30.30;;;;;;5072498;28;19932;-47
2024/02/02 14:18:43;;;;;;;;;;;24.50;30.40;;;;;;5072580;28;19936;-44
2024/02/02 14:21:11;;;;;;;;;;;24.50;30.50;;;;;;5071281;28;20324;-50
2024/02/02 14:23:38;;;;;;;;;;;24.50;30.70;;;;;;5069751;28;20344;-50
2024/02/02 14:26:07;;;;;;;;;;;24.50;30.90;;;;;;5069054;28;19924;-49
2024/02/02 14:28:34;;;;;;;;;;;24.50;31.40;;;;;;5067595;28;20415;-47
2024/02/02 14:31:01;;;;;;;;;;;24.50;31.70;;;;;;5069649;28;20397;-50
2024/02/02 14:33:28;;;;;;;;;;;24.50;32.00;;;;;;5069796;28;19970;-46